Time;durP1;ratioP1;P1;durP2;ratioP2;P2;SDS_P1;SDS_P2;PMS_P1;PMS_P2;Temp;Humidity;BMP_temperature;BMP_pressure;BME280_temperature;BME280_humidity;BME280_pressure;Samples;Min_cycle;Max_cycle;Signal;HPM_P1;HPM_P2
2023/04/11 00:00:12;;;;;;;5.70;4.60;;;;;;;10.78;100.00;100786.97;5048471;28;20300;-68
2023/04/11 00:02:40;;;;;;;6.67;4.70;;;;;;;10.75;100.00;100776.69;5048095;28;20319;-68
2023/04/11 00:05:06;;;;;;;5.73;5.00;;;;;;;10.77;100.00;100772.44;5048230;28;20594;-69
2023/04/11 00:07:32;;;;;;;6.67;5.50;;;;;;;10.64;100.00;100764.53;5044775;28;20277;-66
2023/04/11 00:09:57;;;;;;;8.00;5.50;;;;;;;10.59;100.00;100755.88;5046540;28;20638;-68
2023/04/11 00:12:23;;;;;;;6.60;4.70;;;;;;;10.62;100.00;100753.38;5027383;28;20240;-68
2023/04/11 00:14:48;;;;;;;5.90;4.83;;;;;;;10.59;100.00;100749.06;5047929;28;20210;-68
2023/04/11 00:17:16;;;;;;;8.23;5.00;;;;;;;10.54;100.00;100750.69;5047732;28;20267;-68
2023/04/11 00:19:44;;;;;;;6.10;4.93;;;;;;;10.58;100.00;100738.78;5049737;28;20229;-68
2023/04/11 00:22:10;;;;;;;7.20;5.17;;;;;;;10.48;100.00;100724.13;5047317;28;20216;-68
2023/04/11 00:24:35;;;;;;;7.13;4.77;;;;;;;10.48;100.00;100707.06;5032769;28;20737;-67
2023/04/11 00:27:01;;;;;;;7.87;5.03;;;;;;;10.49;100.00;100721.59;5046079;28;20725;-67
2023/04/11 00:29:27;;;;;;;5.90;5.03;;;;;;;10.44;100.00;100723.22;5051969;28;20197;-67
2023/04/11 00:31:54;;;;;;;8.80;5.30;;;;;;;10.46;100.00;100730.91;5052053;28;20194;-67
2023/04/11 00:34:20;;;;;;;5.07;4.57;;;;;;;10.41;100.00;100718.03;5033031;28;20194;-68
2023/04/11 00:36:47;;;;;;;6.50;4.70;;;;;;;10.42;100.00;100724.00;5049791;28;20993;-68
2023/04/11 00:39:12;;;;;;;5.27;4.17;;;;;;;10.31;100.00;100722.94;5048199;28;20218;-68
2023/04/11 00:41:38;;;;;;;5.90;5.07;;;;;;;10.31;100.00;100734.06;5032299;28;20202;-67
2023/04/11 00:44:05;;;;;;;5.87;4.90;;;;;;;10.29;100.00;100729.75;5025142;28;20327;-67
2023/04/11 00:46:31;;;;;;;5.50;4.70;;;;;;;10.26;100.00;100733.09;5051347;28;20300;-67
2023/04/11 00:48:56;;;;;;;6.67;5.13;;;;;;;10.17;100.00;100726.94;5051760;28;20201;-67
2023/04/11 00:51:22;;;;;;;8.00;5.80;;;;;;;10.16;100.00;100720.09;5031710;28;20193;-67
2023/04/11 00:53:48;;;;;;;8.30;5.60;;;;;;;10.21;100.00;100709.13;5048911;28;20204;-67
2023/04/11 00:56:14;;;;;;;6.93;4.93;;;;;;;10.24;100.00;100705.75;5047787;28;20214;-67
2023/04/11 00:58:40;;;;;;;7.07;5.80;;;;;;;10.11;100.00;100706.38;5047943;28;20655;-67
2023/04/11 01:01:08;;;;;;;6.50;5.50;;;;;;;10.17;100.00;100714.16;5050834;28;20197;-67
2023/04/11 01:03:40;;;;;;;8.97;6.13;;;;;;;10.09;100.00;100696.09;5033594;28;20269;-67
2023/04/11 01:06:08;;;;;;;6.37;5.37;;;;;;;10.17;100.00;100680.88;5030396;28;20225;-67
2023/04/11 01:08:35;;;;;;;7.87;5.13;;;;;;;10.16;100.00;100685.16;5029497;28;20217;-67
2023/04/11 01:11:04;;;;;;;7.53;6.13;;;;;;;10.16;100.00;100664.69;5041436;28;20193;-67
2023/04/11 01:13:32;;;;;;;7.23;5.10;;;;;;;10.13;100.00;100656.09;5048233;28;20197;-67
2023/04/11 01:15:58;;;;;;;7.43;5.60;;;;;;;10.06;100.00;100656.81;5029158;28;20232;-67
2023/04/11 01:18:25;;;;;;;7.73;5.60;;;;;;;10.04;100.00;100653.34;5029308;28;20186;-67
2023/04/11 01:20:51;;;;;;;6.67;4.97;;;;;;;10.06;100.00;100662.81;5016290;28;20310;-67
2023/04/11 01:23:24;;;;;;;7.60;5.63;;;;;;;10.07;100.00;100656.84;5030029;28;20189;-67
2023/04/11 01:25:50;;;;;;;9.10;5.83;;;;;;;10.00;100.00;100669.47;5032528;28;20241;-67
2023/04/11 01:28:17;;;;;;;7.67;5.80;;;;;;;10.01;100.00;100658.41;5033345;28;20201;-70
2023/04/11 01:30:43;;;;;;;7.57;5.70;;;;;;;10.02;100.00;100648.19;5030202;28;20288;-67
2023/04/11 01:33:09;;;;;;;8.67;5.83;;;;;;;10.01;100.00;100655.84;5033199;28;20194;-67
2023/04/11 01:35:35;;;;;;;7.80;5.90;;;;;;;9.97;100.00;100664.28;5045800;28;20361;-67
2023/04/11 01:38:02;;;;;;;7.97;5.90;;;;;;;9.96;100.00;100668.53;5050033;28;20194;-67
2023/04/11 01:40:28;;;;;;;7.70;5.73;;;;;;;9.96;100.00;100671.09;5050953;28;20210;-67
2023/04/11 01:42:54;;;;;;;7.90;5.40;;;;;;;9.94;100.00;100666.78;5049929;28;20209;-67
2023/04/11 01:45:21;;;;;;;9.30;6.23;;;;;;;9.94;100.00;100677.88;5047777;28;20210;-66
2023/04/11 01:47:46;;;;;;;6.90;5.20;;;;;;;9.92;100.00;100683.81;5032552;28;20568;-67
2023/04/11 01:50:12;;;;;;;7.20;6.00;;;;;;;9.87;100.00;100680.28;5050543;28;20196;-67
2023/04/11 01:52:37;;;;;;;10.03;6.63;;;;;;;9.89;100.00;100684.59;5030460;28;20204;-66
2023/04/11 01:55:03;;;;;;;9.30;6.60;;;;;;;9.89;100.00;100679.50;5045309;28;20194;-66
2023/04/11 01:57:29;;;;;;;7.20;5.10;;;;;;;9.91;100.00;100679.53;5028785;28;20197;-67
2023/04/11 01:59:55;;;;;;;7.67;5.67;;;;;;;9.88;100.00;100675.22;5012782;28;20251;-66
2023/04/11 02:02:20;;;;;;;6.77;5.70;;;;;;;9.90;100.00;100678.66;5029683;28;20597;-67
2023/04/11 02:04:46;;;;;;;7.00;5.43;;;;;;;9.86;100.00;100689.66;5049980;28;20289;-68
2023/04/11 02:07:13;;;;;;;7.17;5.40;;;;;;;9.85;100.00;100689.63;5030896;28;20221;-68
2023/04/11 02:09:39;;;;;;;8.30;5.57;;;;;;;9.84;100.00;100690.44;5027604;28;20198;-68
2023/04/11 02:12:04;;;;;;;7.27;5.40;;;;;;;9.83;100.00;100681.94;5031151;28;20607;-68
2023/04/11 02:14:44;;;;;;;8.20;5.63;;;;;;;9.84;100.00;100682.78;5029343;28;20568;-68
2023/04/11 02:17:12;;;;;;;6.70;5.00;;;;;;;9.87;100.00;100687.97;5030816;28;20236;-68
2023/04/11 02:19:44;;;;;;;5.97;4.37;;;;;;;9.84;100.00;100687.91;5049478;28;20217;-67
2023/04/11 02:22:10;;;;;;;5.80;4.23;;;;;;;9.87;100.00;100687.97;5032092;28;20242;-67
2023/04/11 02:24:36;;;;;;;5.63;4.10;;;;;;;9.86;100.00;100681.97;5030499;28;20911;-67
2023/04/11 02:27:02;;;;;;;4.50;3.33;;;;;;;9.80;100.00;100676.75;5028300;28;20220;-67
2023/04/11 02:29:27;;;;;;;4.63;3.00;;;;;;;9.72;100.00;100669.78;5029706;28;20189;-67
2023/04/11 02:31:53;;;;;;;6.80;2.80;;;;;;;9.62;100.00;100667.84;5027265;28;20204;-68
2023/04/11 02:34:19;;;;;;;5.30;2.47;;;;;;;9.62;100.00;100652.50;5044043;28;20780;-67
2023/04/11 02:36:44;;;;;;;3.00;2.30;;;;;;;9.56;100.00;100653.25;5048136;28;20218;-68
2023/04/11 02:39:11;;;;;;;4.23;2.17;;;;;;;9.52;100.00;100648.03;5048530;28;20213;-68
2023/04/11 02:41:40;;;;;;;4.50;3.07;;;;;;;9.54;100.00;100641.28;5030241;28;20201;-68
2023/04/11 02:44:08;;;;;;;3.03;2.40;;;;;;;9.59;100.00;100637.13;5031372;28;20198;-67
2023/04/11 02:46:33;;;;;;;3.47;2.07;;;;;;;9.58;100.00;100643.91;5031165;28;20248;-67
2023/04/11 02:48:59;;;;;;;2.80;2.00;;;;;;;9.59;100.00;100634.56;5031528;28;20225;-68
2023/04/11 02:51:26;;;;;;;4.00;2.30;;;;;;;9.59;100.00;100632.84;5029767;28;20200;-68
2023/04/11 02:53:51;;;;;;;4.47;2.53;;;;;;;9.55;100.00;100641.31;5031270;28;20193;-68
2023/04/11 02:56:18;;;;;;;4.20;2.47;;;;;;;9.54;100.00;100636.19;5052599;28;20241;-68
2023/04/11 02:58:46;;;;;;;4.10;2.70;;;;;;;9.58;100.00;100632.84;5030508;28;20193;-67
2023/04/11 03:01:18;;;;;;;5.00;3.00;;;;;;;9.54;100.00;100623.41;5031457;28;20196;-68
2023/04/11 03:03:43;;;;;;;4.23;2.63;;;;;;;9.58;100.00;100614.97;5025652;28;20190;-68
2023/04/11 03:06:10;;;;;;;4.67;3.43;;;;;;;9.58;100.00;100615.81;5027185;28;20218;-67
2023/04/11 03:08:38;;;;;;;5.23;3.20;;;;;;;9.59;100.00;100602.19;5029602;28;20325;-68
2023/04/11 03:11:05;;;;;;;6.57;3.23;;;;;;;9.57;100.00;100613.22;5030260;28;20725;-68
2023/04/11 03:13:30;;;;;;;6.67;2.90;;;;;;;9.59;100.00;100596.22;5030667;28;20190;-67
2023/04/11 03:15:56;;;;;;;3.53;2.87;;;;;;;9.55;100.00;100602.97;5030357;28;20584;-68
2023/04/11 03:18:25;;;;;;;4.17;3.57;;;;;;;9.57;100.00;100608.97;5030414;28;20220;-67
2023/04/11 03:20:51;;;;;;;4.33;2.90;;;;;;;9.58;100.00;100600.47;5030345;28;20308;-67
2023/04/11 03:23:17;;;;;;;4.47;2.83;;;;;;;9.58;100.00;100623.47;5031070;28;20182;-68
2023/04/11 03:25:46;;;;;;;4.03;2.20;;;;;;;9.49;100.00;100620.72;5029383;28;20213;-67
2023/04/11 03:28:14;;;;;;;2.50;1.93;;;;;;;9.39;100.00;100626.50;5026566;28;20190;-67
2023/04/11 03:30:41;;;;;;;2.73;1.67;;;;;;;9.25;100.00;100637.25;5030634;28;20591;-67
2023/04/11 03:33:08;;;;;;;4.10;2.30;;;;;;;9.16;100.00;100637.06;5025107;28;20193;-67
2023/04/11 03:35:35;;;;;;;3.30;1.87;;;;;;;9.16;100.00;100612.38;5028764;28;20222;-67
2023/04/11 03:38:00;;;;;;;2.27;1.50;;;;;;;9.08;100.00;100630.94;5029739;28;20240;-67
2023/04/11 03:40:26;;;;;;;2.07;1.30;;;;;;;8.98;100.00;100634.13;5030655;28;20686;-66
2023/04/11 03:43:02;;;;;;;2.30;1.30;;;;;;;8.84;100.00;100638.91;5028014;28;20202;-66
2023/04/11 03:45:30;;;;;;;1.43;1.00;;;;;;;8.67;100.00;100650.41;5027147;28;20289;-67
2023/04/11 03:47:58;;;;;;;1.33;1.00;;;;;;;8.59;100.00;100645.97;5030311;28;20201;-67
2023/04/11 03:50:30;;;;;;;1.87;1.00;;;;;;;8.46;100.00;100637.16;5028092;28;20186;-67
2023/04/11 03:52:59;;;;;;;2.00;1.03;;;;;;;8.40;100.00;100633.59;5013094;28;20217;-67
2023/04/11 03:55:26;;;;;;;2.00;1.00;;;;;;;8.42;100.00;100634.47;5030520;28;20709;-68
2023/04/11 03:57:53;;;;;;;2.20;1.00;;;;;;;8.41;100.00;100630.19;5030303;28;20549;-68
2023/04/11 04:00:19;;;;;;;1.87;0.93;;;;;;;8.39;100.00;100626.75;5013522;28;20262;-68
2023/04/11 04:02:56;;;;;;;1.60;0.90;;;;;;;8.33;100.00;100626.59;5015318;28;20548;-68
2023/04/11 04:05:22;;;;;;;2.87;0.77;;;;;;;8.31;100.00;100630.81;5030254;28;20209;-68
2023/04/11 04:07:47;;;;;;;1.53;0.90;;;;;;;8.30;100.00;100626.53;5029066;28;20235;-68
2023/04/11 04:10:23;;;;;;;2.13;0.70;;;;;;;8.26;100.00;100628.16;5028911;28;20197;-67
2023/04/11 04:12:52;;;;;;;2.60;0.90;;;;;;;8.27;100.00;100623.91;5030085;28;20975;-67
2023/04/11 04:15:20;;;;;;;3.00;0.87;;;;;;;8.24;100.00;100613.66;5029983;28;20300;-67
2023/04/11 04:17:47;;;;;;;3.17;1.10;;;;;;;8.23;100.00;100594.91;5029679;28;20724;-68
2023/04/11 04:20:22;;;;;;;1.70;0.90;;;;;;;8.24;100.00;100611.94;5027305;28;20205;-68
2023/04/11 04:22:52;;;;;;;2.37;0.70;;;;;;;8.18;100.00;100618.53;5030224;28;20247;-67
2023/04/11 04:25:24;;;;;;;3.10;1.07;;;;;;;8.16;100.00;100625.31;5030046;28;21043;-68
2023/04/11 04:27:52;;;;;;;2.57;0.83;;;;;;;8.15;100.00;100624.44;5029232;28;20190;-68
2023/04/11 04:30:20;;;;;;;1.60;0.73;;;;;;;8.18;100.00;100629.63;5030245;28;20193;-68
2023/04/11 04:33:11;;;;;;;1.93;1.00;;;;;;;8.16;100.00;100636.34;5032612;28;20629;-67
2023/04/11 04:35:38;;;;;;;3.37;1.13;;;;;;;8.17;100.00;100640.66;5023954;28;20218;-67
2023/04/11 04:38:05;;;;;;;2.90;1.07;;;;;;;8.13;100.00;100641.38;5025833;28;20227;-67
2023/04/11 04:40:56;;;;;;;3.13;0.83;;;;;;;8.09;100.00;100644.69;5045347;28;20310;-68
2023/04/11 04:43:26;;;;;;;2.90;0.70;;;;;;;8.11;100.00;100649.81;5014676;28;20186;-67
2023/04/11 04:46:11;;;;;;;4.67;1.40;;;;;;;8.09;100.00;100657.44;5046719;28;20221;-68
2023/04/11 04:48:45;;;;;;;6.57;2.20;;;;;;;8.08;100.00;100653.16;5026980;28;20231;-67
2023/04/11 04:51:10;;;;;;;3.00;1.37;;;;;;;8.09;100.00;100651.44;5027480;28;20287;-67
2023/04/11 04:53:37;;;;;;;4.27;1.33;;;;;;;8.07;100.00;100648.00;5029797;28;20190;-67
2023/04/11 04:56:03;;;;;;;1.67;0.80;;;;;;;8.09;100.00;100656.56;5029389;28;20238;-68
2023/04/11 04:58:31;;;;;;;2.50;0.80;;;;;;;8.07;100.00;100650.56;5027741;28;20269;-68
2023/04/11 05:01:01;;;;;;;1.40;0.80;;;;;;;8.08;100.00;100650.59;5029599;28;20213;-67
2023/04/11 05:03:27;;;;;;;3.27;1.00;;;;;;;8.05;100.00;100655.63;5029867;28;20570;-68
2023/04/11 05:05:53;;;;;;;0.83;0.70;;;;;;;8.01;100.00;100653.81;5031693;28;20213;-67
2023/04/11 05:08:20;;;;;;;5.53;1.10;;;;;;;8.01;100.00;100661.44;5033549;28;20201;-68
2023/04/11 05:10:45;;;;;;;2.93;1.10;;;;;;;8.04;100.00;100659.00;5029624;28;20199;-67
2023/04/11 05:13:11;;;;;;;2.70;0.90;;;;;;;8.06;100.00;100664.16;5033239;28;20285;-68
2023/04/11 05:15:37;;;;;;;2.23;1.13;;;;;;;8.02;100.00;100663.19;5032699;28;20583;-67
2023/04/11 05:18:02;;;;;;;3.23;0.90;;;;;;;8.04;100.00;100673.41;5032609;28;20209;-67
2023/04/11 05:20:28;;;;;;;2.00;0.93;;;;;;;8.05;100.00;100670.03;5032912;28;20214;-68
2023/04/11 05:22:55;;;;;;;4.90;0.97;;;;;;;8.08;100.00;100673.56;5028015;28;20352;-68
2023/04/11 05:25:21;;;;;;;3.80;1.20;;;;;;;8.08;100.00;100670.13;5032964;28;20316;-68
2023/04/11 05:27:48;;;;;;;4.17;1.33;;;;;;;8.07;100.00;100661.59;5030910;28;20884;-69
2023/04/11 05:30:15;;;;;;;4.67;1.10;;;;;;;8.09;100.00;100666.75;5029622;28;20185;-68
2023/04/11 05:32:41;;;;;;;4.00;1.50;;;;;;;8.08;100.00;100672.69;5032686;28;20223;-67
2023/04/11 05:35:08;;;;;;;2.07;1.00;;;;;;;8.12;100.00;100669.41;5014908;28;20273;-67
2023/04/11 05:37:43;;;;;;;10.37;1.30;;;;;;;8.09;100.00;100676.94;5050608;28;20250;-67
2023/04/11 05:40:09;;;;;;;3.40;1.33;;;;;;;8.03;100.00;100684.44;5032574;28;20301;-67
2023/04/11 05:42:34;;;;;;;5.17;1.40;;;;;;;8.02;100.00;100673.38;5050299;28;20206;-67
2023/04/11 05:45:00;;;;;;;4.33;1.33;;;;;;;7.99;100.00;100672.44;5048381;28;20197;-66
2023/04/11 05:47:26;;;;;;;4.70;1.20;;;;;;;7.93;100.00;100682.47;5032202;28;20190;-68
2023/04/11 05:49:52;;;;;;;5.87;1.47;;;;;;;7.92;100.00;100679.06;5032297;28;20192;-68
2023/04/11 05:52:18;;;;;;;5.87;1.77;;;;;;;7.93;100.00;100678.22;5031892;28;20225;-68
2023/04/11 05:54:43;;;;;;;2.50;1.20;;;;;;;7.97;100.00;100679.19;5032582;28;20663;-68
2023/04/11 05:57:08;;;;;;;6.93;1.57;;;;;;;8.11;100.00;100688.06;5049610;28;20209;-67
2023/04/11 05:59:35;;;;;;;5.00;1.67;;;;;;;8.28;100.00;100686.84;5049181;28;20296;-68
2023/04/11 06:02:00;;;;;;;3.77;1.10;;;;;;;8.38;100.00;100678.63;5049746;28;20233;-68
2023/04/11 06:04:26;;;;;;;6.60;1.30;;;;;;;8.53;100.00;100686.66;5050082;28;20276;-68
2023/04/11 06:06:52;;;;;;;4.90;1.30;;;;;;;8.55;100.00;100680.75;5031241;28;20217;-67
2023/04/11 06:09:18;;;;;;;6.13;1.70;;;;;;;8.60;100.00;100685.97;5045142;28;20185;-67
2023/04/11 06:11:43;;;;;;;4.67;1.30;;;;;;;8.77;100.00;100688.09;5050389;28;20193;-68
2023/04/11 06:14:09;;;;;;;6.53;1.77;;;;;;;8.76;100.00;100691.47;5049673;28;20567;-67
2023/04/11 06:16:35;;;;;;;6.53;1.80;;;;;;;8.90;100.00;100681.59;5044722;28;20213;-68
2023/04/11 06:19:02;;;;;;;4.70;1.80;;;;;;;8.92;100.00;100673.16;5049575;28;20201;-67
2023/04/11 06:21:27;;;;;;;5.50;1.80;;;;;;;9.14;100.00;100677.03;5048524;28;20190;-68
2023/04/11 06:23:53;;;;;;;4.90;1.60;;;;;;;8.95;100.00;100683.44;5050056;28;20602;-68
2023/04/11 06:26:19;;;;;;;5.30;1.63;;;;;;;8.86;100.00;100682.34;5043678;28;20288;-68
2023/04/11 06:28:44;;;;;;;4.30;1.67;;;;;;;8.75;100.00;100686.34;5049958;28;20194;-67
2023/04/11 06:31:10;;;;;;;6.50;2.20;;;;;;;8.94;100.00;100688.50;5049723;28;20251;-68
2023/04/11 06:33:37;;;;;;;6.27;2.07;;;;;;;8.92;100.00;100680.81;5048686;28;20195;-68
2023/04/11 06:36:02;;;;;;;6.67;2.40;;;;;;;9.06;100.00;100681.09;5047270;28;20221;-68
2023/04/11 06:38:28;;;;;;;5.17;2.23;;;;;;;9.32;100.00;100685.97;5049911;28;20190;-68
2023/04/11 06:40:55;;;;;;;5.23;1.97;;;;;;;9.38;100.00;100681.00;5049677;28;20270;-68
2023/04/11 06:43:21;;;;;;;5.07;1.50;;;;;;;9.46;100.00;100679.47;5030003;28;20209;-68
2023/04/11 06:45:48;;;;;;;5.23;1.37;;;;;;;9.21;100.00;100684.88;5049464;28;20221;-68
2023/04/11 06:48:16;;;;;;;5.03;1.60;;;;;;;9.04;100.00;100682.78;5049176;28;20698;-68
2023/04/11 06:50:42;;;;;;;4.27;1.23;;;;;;;8.82;100.00;100681.41;5048223;28;20284;-68
2023/04/11 06:53:09;;;;;;;3.80;1.47;;;;;;;8.90;100.00;100681.59;5046752;28;20327;-68
2023/04/11 06:55:34;;;;;;;4.63;1.60;;;;;;;8.84;100.00;100682.31;5049030;28;20573;-67
2023/04/11 06:58:00;;;;;;;4.93;1.10;;;;;;;8.92;100.00;100691.03;5048920;28;20273;-68
2023/04/11 07:00:26;;;;;;;5.37;2.07;;;;;;;8.82;100.00;100683.09;5047745;28;20268;-67
2023/04/11 07:02:51;;;;;;;3.70;1.50;;;;;;;8.93;100.00;100677.41;5027924;28;20285;-68
2023/04/11 07:05:17;;;;;;;7.83;2.03;;;;;;;8.68;100.00;100694.66;5047521;28;20273;-68
2023/04/11 07:07:42;;;;;;;5.10;2.20;;;;;;;8.58;100.00;100691.06;5047120;28;20568;-67
2023/04/11 07:10:08;;;;;;;5.07;2.03;;;;;;;8.71;100.00;100694.75;5048051;28;20221;-67
2023/04/11 07:12:33;;;;;;;4.43;2.00;;;;;;;8.68;100.00;100697.22;5049116;28;20190;-67
2023/04/11 07:14:59;;;;;;;5.67;2.07;;;;;;;8.70;100.00;100705.81;5048850;28;20193;-67
2023/04/11 07:17:24;;;;;;;5.53;2.33;;;;;;;8.72;100.00;100709.25;5048560;28;20216;-67
2023/04/11 07:19:50;;;;;;;4.50;2.00;;;;;;;8.97;100.00;100702.19;5043644;28;20296;-68
2023/04/11 07:22:15;;;;;;;3.80;1.93;;;;;;;8.97;100.00;100706.44;5046867;28;20205;-67
2023/04/11 07:24:42;;;;;;;3.60;2.43;;;;;;;9.04;100.00;100705.75;5048570;28;20240;-67
2023/04/11 07:27:08;;;;;;;3.00;2.10;;;;;;;9.02;100.00;100707.41;5048058;28;20213;-67
2023/04/11 07:29:33;;;;;;;2.87;2.03;;;;;;;9.02;100.00;100708.28;5048534;28;20541;-67
2023/04/11 07:31:58;;;;;;;4.10;2.53;;;;;;;9.24;100.00;100710.50;5048276;28;20220;-67
2023/04/11 07:34:24;;;;;;;5.77;2.70;;;;;;;9.17;100.00;100712.88;5047732;28;20609;-67
2023/04/11 07:36:49;;;;;;;6.40;2.97;;;;;;;8.96;100.00;100718.34;5044806;28;20213;-67
2023/04/11 07:39:15;;;;;;;3.27;2.83;;;;;;;9.03;100.00;100724.47;5029848;28;20225;-67
2023/04/11 07:41:40;;;;;;;5.77;3.03;;;;;;;8.90;100.00;100725.00;5047882;28;20198;-66
2023/04/11 07:44:06;;;;;;;4.60;3.60;;;;;;;8.96;100.00;100725.13;5045768;28;20206;-67
2023/04/11 07:46:32;;;;;;;5.67;2.97;;;;;;;8.96;100.00;100732.78;5047841;28;20212;-68
2023/04/11 07:48:58;;;;;;;4.03;2.70;;;;;;;9.01;100.00;100749.09;5042654;28;20663;-69
2023/04/11 07:51:25;;;;;;;4.57;2.53;;;;;;;8.87;100.00;100756.44;5027071;28;20263;-70
2023/04/11 07:53:51;;;;;;;2.13;1.53;;;;;;;8.99;100.00;100760.97;5046747;28;20201;-70
2023/04/11 07:56:16;;;;;;;2.23;0.93;;;;;;;8.88;100.00;100764.94;5047336;28;20217;-70
2023/04/11 07:58:42;;;;;;;4.03;0.90;;;;;;;8.80;100.00;100772.41;5045630;28;20217;-69
2023/04/11 08:01:19;;;;;;;1.87;0.70;;;;;;;8.68;100.00;100771.25;5041521;28;20214;-68
2023/04/11 08:03:44;;;;;;;0.70;0.70;;;;;;;8.54;100.00;100765.78;5047479;28;20200;-67
2023/04/11 08:06:10;;;;;;;1.60;0.80;;;;;;;8.36;100.00;100772.09;5043382;28;20218;-68
2023/04/11 08:08:35;;;;;;;1.80;0.70;;;;;;;8.30;100.00;100782.13;5044950;28;20244;-67
2023/04/11 08:11:01;;;;;;;1.90;0.70;;;;;;;8.21;100.00;100785.28;5029773;28;20283;-68
2023/04/11 08:13:26;;;;;;;2.17;0.60;;;;;;;8.29;100.00;100783.81;5047881;28;20228;-68
2023/04/11 08:15:52;;;;;;;1.87;0.70;;;;;;;8.21;100.00;100790.38;5043527;28;20246;-67
2023/04/11 08:18:20;;;;;;;2.07;0.97;;;;;;;8.22;100.00;100796.34;5047955;28;20275;-68
2023/04/11 08:20:47;;;;;;;1.67;0.90;;;;;;;8.18;100.00;100791.94;5029749;28;20226;-68
2023/04/11 08:23:14;;;;;;;1.77;0.90;;;;;;;8.29;100.00;100782.97;5045057;28;20193;-68
2023/04/11 08:25:40;;;;;;;1.03;0.80;;;;;;;8.35;100.00;100783.13;5046549;28;20228;-68
2023/04/11 08:28:08;;;;;;;1.20;0.80;;;;;;;8.42;100.00;100785.00;5044811;28;20305;-68
2023/04/11 08:30:34;;;;;;;2.07;0.97;;;;;;;8.53;100.00;100786.16;5047064;28;20221;-68
2023/04/11 08:33:00;;;;;;;1.10;0.80;;;;;;;8.65;100.00;100781.34;5045617;28;20201;-68
2023/04/11 08:35:26;;;;;;;0.93;0.80;;;;;;;8.79;100.00;100787.69;5046653;28;20220;-68
2023/04/11 08:37:51;;;;;;;1.27;0.90;;;;;;;8.70;100.00;100787.47;5044021;28;20217;-68
2023/04/11 08:40:17;;;;;;;2.07;1.00;;;;;;;8.94;100.00;100791.47;5044596;28;20702;-68
2023/04/11 08:42:43;;;;;;;2.77;1.10;;;;;;;9.00;100.00;100784.00;5033285;28;20201;-68
2023/04/11 08:45:09;;;;;;;2.63;1.10;;;;;;;9.15;100.00;100791.16;5050668;28;20201;-67
2023/04/11 08:47:37;;;;;;;2.80;1.53;;;;;;;9.01;100.00;100792.50;5033748;28;20194;-67
2023/04/11 08:50:04;;;;;;;4.83;1.83;;;;;;;9.14;100.00;100792.84;5047177;28;20198;-68
2023/04/11 08:52:31;;;;;;;2.70;1.80;;;;;;;9.37;100.00;100780.59;5029380;28;20208;-67
2023/04/11 08:54:57;;;;;;;4.47;2.40;;;;;;;9.58;100.00;100783.66;5033165;28;20264;-68
2023/04/11 08:57:27;;;;;;;6.93;3.30;;;;;;;9.71;100.00;100791.63;5032453;28;20221;-68
2023/04/11 09:00:13;;;;;;;7.03;4.03;;;;;;;9.81;100.00;100783.31;5032510;28;20225;-68
2023/04/11 09:03:02;;;;;;;4.60;3.80;;;;;;;9.73;100.00;100784.00;5047900;28;20255;-67
2023/04/11 09:05:32;;;;;;;9.20;4.90;;;;;;;9.71;100.00;100781.41;5045999;28;20706;-68
2023/04/11 09:08:00;;;;;;;7.23;4.50;;;;;;;9.91;100.00;100782.66;5047226;28;20201;-68
2023/04/11 09:10:26;;;;;;;7.90;5.50;;;;;;;9.93;100.00;100782.72;5049937;28;20659;-68
2023/04/11 09:12:53;;;;;;;7.07;5.30;;;;;;;9.84;100.00;100783.38;5050403;28;20243;-68
2023/04/11 09:15:21;;;;;;;6.83;5.27;;;;;;;9.90;100.00;100788.63;5049633;28;20197;-68
2023/04/11 09:17:48;;;;;;;9.83;5.77;;;;;;;10.15;100.00;100774.69;5046892;28;20251;-68
2023/04/11 09:20:18;;;;;;;7.53;5.60;;;;;;;10.00;100.00;100782.84;5046722;28;20261;-67
2023/04/11 09:22:43;;;;;;;8.23;5.70;;;;;;;10.34;100.00;100774.19;5048272;28;20225;-68
2023/04/11 09:25:09;;;;;;;8.20;5.90;;;;;;;10.64;100.00;100775.63;5046131;28;20744;-68
2023/04/11 09:27:34;;;;;;;8.83;5.53;;;;;;;10.81;100.00;100766.53;5050075;28;20189;-68
2023/04/11 09:30:01;;;;;;;10.37;5.83;;;;;;;10.89;100.00;100776.91;5050283;28;20577;-68
2023/04/11 09:32:27;;;;;;;6.43;5.47;;;;;;;10.80;100.00;100775.06;5047855;28;20863;-67
2023/04/11 09:35:11;;;;;;;6.97;6.27;;;;;;;10.62;100.00;100772.19;5045383;28;20612;-68
2023/04/11 09:37:43;;;;;;;8.77;6.23;;;;;;;10.58;100.00;100767.84;5044805;28;20239;-67
2023/04/11 09:40:09;;;;;;;10.40;6.47;;;;;;;10.61;100.00;100769.59;5047808;28;20213;-66
2023/04/11 09:42:34;;;;;;;11.10;6.93;;;;;;;10.27;100.00;100775.78;5031660;28;20813;-68
2023/04/11 09:45:01;;;;;;;12.07;7.70;;;;;;;10.21;100.00;100770.53;5050162;28;20555;-68
2023/04/11 09:47:31;;;;;;;9.23;6.67;;;;;;;9.85;100.00;100780.00;5029809;28;20193;-67
2023/04/11 09:49:58;;;;;;;7.30;5.43;;;;;;;9.72;100.00;100780.56;5044902;28;20194;-67
2023/04/11 09:52:25;;;;;;;7.57;4.93;;;;;;;9.72;100.00;100787.38;5045215;28;20202;-67
2023/04/11 09:54:51;;;;;;;4.30;3.30;;;;;;;9.48;100.00;100792.81;5047765;28;20197;-66
2023/04/11 09:57:20;;;;;;;4.63;3.07;;;;;;;9.29;100.00;100794.88;5049646;28;20218;-67
2023/04/11 09:59:46;;;;;;;5.57;2.80;;;;;;;9.21;100.00;100797.28;5044760;28;20222;-67
2023/04/11 10:02:12;;;;;;;5.47;2.60;;;;;;;9.12;100.00;100796.19;5047716;28;20292;-67
2023/04/11 10:04:39;;;;;;;5.83;2.47;;;;;;;9.41;100.00;100795.19;5047044;28;20250;-67
2023/04/11 10:07:12;;;;;;;3.90;2.33;;;;;;;9.40;100.00;100794.31;5044190;28;20687;-67
2023/04/11 10:09:42;;;;;;;4.47;2.53;;;;;;;9.59;100.00;100806.69;5047929;28;20278;-68
2023/04/11 10:12:08;;;;;;;2.90;2.10;;;;;;;9.74;100.00;100798.50;5031844;28;20221;-67
2023/04/11 10:14:36;;;;;;;4.07;2.50;;;;;;;9.82;100.00;100796.97;5031783;28;20189;-67
2023/04/11 10:17:20;;;;;;;3.43;2.30;;;;;;;9.99;100.00;100793.06;5042266;28;20220;-68
2023/04/11 10:19:47;;;;;;;3.50;2.07;;;;;;;10.01;100.00;100799.97;5048187;28;20698;-68
2023/04/11 10:22:48;;;;;;;3.53;1.90;;;;;;;10.06;100.00;100794.94;5042562;28;20196;-68
2023/04/11 10:25:15;;;;;;;6.30;1.73;;;;;;;10.06;100.00;100797.50;4980354;28;20677;-68
2023/04/11 10:27:48;;;;;;;2.53;1.20;;;;;;;9.88;100.00;100812.44;5033088;28;20213;-67
2023/04/11 10:30:14;;;;;;;3.27;1.27;;;;;;;9.64;100.00;100805.09;5017292;28;20237;-67
2023/04/11 10:32:40;;;;;;;2.37;1.23;;;;;;;9.47;100.00;100820.88;5047511;28;20330;-68
2023/04/11 10:35:20;;;;;;;3.83;1.30;;;;;;;9.28;100.00;100827.25;5044507;28;20193;-67
2023/04/11 10:37:47;;;;;;;2.43;1.20;;;;;;;9.17;100.00;100822.72;5029521;28;20281;-67
2023/04/11 10:40:12;;;;;;;3.77;1.50;;;;;;;9.25;100.00;100829.72;5046420;28;20714;-67
2023/04/11 10:42:43;;;;;;;4.57;1.60;;;;;;;9.15;100.00;100838.00;5028703;28;20274;-67
2023/04/11 10:45:29;;;;;;;3.87;1.50;;;;;;;9.44;100.00;100834.44;5044940;28;20198;-67
2023/04/11 10:47:55;;;;;;;2.43;1.40;;;;;;;9.45;100.00;100831.06;5046990;28;20563;-67
2023/04/11 10:50:26;;;;;;;3.77;1.20;;;;;;;9.34;100.00;100844.41;5043637;28;20201;-67
2023/04/11 10:52:56;;;;;;;3.93;1.30;;;;;;;9.44;100.00;100843.81;5039858;28;20204;-67
2023/04/11 10:55:22;;;;;;;1.30;1.20;;;;;;;9.38;100.00;100846.22;5047361;28;20284;-67
2023/04/11 10:58:08;;;;;;;2.00;1.40;;;;;;;9.30;100.00;100856.25;5029975;28;20570;-67
2023/04/11 11:00:45;;;;;;;1.90;1.00;;;;;;;9.53;100.00;100856.78;5047592;28;20244;-67
2023/04/11 11:03:14;;;;;;;2.83;1.33;;;;;;;9.65;100.00;100849.41;5044201;28;20203;-67
2023/04/11 11:05:40;;;;;;;2.30;1.20;;;;;;;9.82;100.00;100850.69;5044744;28;20586;-67
2023/04/11 11:08:06;;;;;;;3.03;1.20;;;;;;;9.74;100.00;100847.06;5044643;28;20691;-67
2023/04/11 11:10:39;;;;;;;3.17;1.17;;;;;;;9.82;100.00;100854.06;5047144;28;20194;-67
2023/04/11 11:13:05;;;;;;;1.50;1.20;;;;;;;9.80;100.00;100857.44;5049010;28;20194;-67
2023/04/11 11:15:36;;;;;;;4.30;1.73;;;;;;;9.86;100.00;100861.00;5046752;28;20318;-67
2023/04/11 11:18:13;;;;;;;2.73;1.33;;;;;;;9.80;100.00;100860.00;5043615;28;20205;-67
2023/04/11 11:20:38;;;;;;;2.83;1.27;;;;;;;9.86;100.00;100866.09;5044095;28;20857;-68
2023/04/11 11:23:06;;;;;;;5.07;1.60;;;;;;;9.90;100.00;100875.56;5041487;28;20200;-68
2023/04/11 11:25:32;;;;;;;3.03;1.40;;;;;;;9.98;100.00;100878.31;5044227;28;20575;-68